createdAt,value
2018-06-12T00:02:20.398Z,3.61
2018-06-12T00:08:15.390Z,3.36
2018-06-12T00:14:10.388Z,2.9
2018-06-12T00:20:05.448Z,3.07
2018-06-12T00:26:00.501Z,2.97
2018-06-12T00:31:55.420Z,2.94
2018-06-12T00:37:50.428Z,2.9
2018-06-12T00:43:45.435Z,2.94
2018-06-12T00:49:40.406Z,2.68
2018-06-12T00:55:35.412Z,2.58
2018-06-12T01:01:30.391Z,2.78
2018-06-12T01:07:25.381Z,2.35
2018-06-12T01:13:20.475Z,2.65
2018-06-12T01:19:15.453Z,2.81
2018-06-12T01:25:10.466Z,2.72
2018-06-12T01:31:05.575Z,2.64
2018-06-12T01:37:00.440Z,2.54
2018-06-12T01:42:55.440Z,2.43
2018-06-12T01:48:50.444Z,2.62
2018-06-12T01:54:45.464Z,2.37
2018-06-12T02:00:40.445Z,3.27
2018-06-12T02:06:35.436Z,3.65
2018-06-12T02:12:30.486Z,3.51
2018-06-12T02:18:25.469Z,3.6
2018-06-12T02:24:20.508Z,2.92
2018-06-12T02:30:15.486Z,3.36
2018-06-12T02:36:10.567Z,3.33
2018-06-12T02:42:05.476Z,3.37
2018-06-12T02:48:00.567Z,3.57
2018-06-12T02:53:55.495Z,3.44
2018-06-12T02:59:50.489Z,3.22
2018-06-12T03:05:45.472Z,3.12
2018-06-12T03:11:40.462Z,4.34
2018-06-12T03:17:35.539Z,3.87
2018-06-12T03:23:30.502Z,3.31
2018-06-12T03:29:25.482Z,3.42
2018-06-12T03:35:20.584Z,3.23
2018-06-12T03:41:15.612Z,3.22
2018-06-12T03:47:10.564Z,3.48
2018-06-12T03:53:05.624Z,3.21
2018-06-12T03:59:00.509Z,3.35
2018-06-12T04:04:55.516Z,3.28
2018-06-12T04:10:50.512Z,3.55
2018-06-12T04:16:45.537Z,3.7
2018-06-12T04:22:40.573Z,4
2018-06-12T04:28:35.588Z,3.55
2018-06-12T04:34:30.577Z,3.98
2018-06-12T04:40:25.546Z,4.85
2018-06-12T04:46:20.543Z,4.56
2018-06-12T04:52:15.586Z,4.19
2018-06-12T04:58:10.523Z,3.49
2018-06-12T05:04:05.526Z,5.01
2018-06-12T05:10:00.562Z,5.48
2018-06-12T05:15:55.557Z,5.61
2018-06-12T05:21:50.591Z,5.57
2018-06-12T05:27:45.579Z,5.93
2018-06-12T05:33:40.591Z,4.1
2018-06-12T05:39:35.570Z,4.2
2018-06-12T05:45:30.587Z,3.79
2018-06-12T05:51:25.639Z,4.58
2018-06-12T05:57:20.571Z,5.5
2018-06-12T06:03:15.622Z,5.47
2018-06-12T06:09:10.643Z,6.69
2018-06-12T06:15:05.656Z,8.18
2018-06-12T06:21:00.586Z,7.96
2018-06-12T06:26:55.614Z,5.23
2018-06-12T06:32:50.663Z,5.16
2018-06-12T06:38:45.586Z,5.2
2018-06-12T06:44:40.627Z,3.85
2018-06-12T06:50:35.634Z,5.37
2018-06-12T06:56:30.663Z,4.39
2018-06-12T07:02:25.618Z,4.48
2018-06-12T07:08:20.672Z,4.71
2018-06-12T07:14:15.699Z,5.4
2018-06-12T07:20:11.070Z,3.97
2018-06-12T07:26:05.627Z,4.12
2018-06-12T07:32:00.626Z,3.7
2018-06-12T07:37:55.633Z,3.95
2018-06-12T07:43:50.627Z,3.6
2018-06-12T07:49:45.681Z,2.45
2018-06-12T07:55:42.591Z,2.79
2018-06-12T08:01:35.625Z,2.88
2018-06-12T08:07:30.709Z,2.78
2018-06-12T08:13:25.722Z,2.6
2018-06-12T08:19:20.699Z,2.31
2018-06-12T08:25:15.647Z,2.51
2018-06-12T08:31:10.650Z,2.53
2018-06-12T08:37:05.666Z,2.45
2018-06-12T08:43:00.683Z,2.75
2018-06-12T08:48:55.675Z,2.17
2018-06-12T08:54:50.713Z,1.73
2018-06-12T09:00:45.701Z,1.8
2018-06-12T09:06:40.683Z,2.22
2018-06-12T09:12:35.665Z,1.72
2018-06-12T09:18:30.701Z,1.77
2018-06-12T09:24:25.724Z,1.74
2018-06-12T09:30:20.702Z,1.94
2018-06-12T09:36:15.733Z,1.76
2018-06-12T09:42:10.807Z,1.68
2018-06-12T09:48:05.697Z,1.62
2018-06-12T09:54:00.692Z,1.72
2018-06-12T09:59:55.693Z,1.85
2018-06-12T10:05:50.703Z,1.62
2018-06-12T10:11:45.757Z,1.89
2018-06-12T10:17:40.738Z,1.89
2018-06-12T10:23:35.782Z,1.86
2018-06-12T10:29:30.724Z,1.83
2018-06-12T10:35:25.715Z,1.84
2018-06-12T10:41:20.799Z,4.6
2018-06-12T10:47:15.725Z,3.95
2018-06-12T10:53:10.738Z,2.74
2018-06-12T10:59:05.770Z,2.44
2018-06-12T11:05:00.786Z,2.99
2018-06-12T11:10:55.823Z,13.02
2018-06-12T11:16:54.851Z,8.95
2018-06-12T11:22:45.751Z,13.45
2018-06-12T11:28:40.783Z,43.94
2018-06-12T11:34:35.791Z,68.47
2018-06-12T11:40:30.843Z,90.67
2018-06-12T11:46:25.771Z,47.97
2018-06-12T11:52:20.798Z,5.64
2018-06-12T11:58:15.777Z,4.69
2018-06-12T12:04:11.784Z,41.87
2018-06-12T12:10:05.798Z,23.72
2018-06-12T12:16:00.790Z,54.63
2018-06-12T12:21:55.847Z,42.45
2018-06-12T12:27:51.815Z,46.97
2018-06-12T12:33:45.873Z,37.51
2018-06-12T12:39:40.840Z,25.01
2018-06-12T12:45:39.919Z,30.5
2018-06-12T12:51:30.854Z,27.54
2018-06-12T12:57:25.833Z,37
2018-06-12T13:03:20.829Z,17.13
2018-06-12T13:09:15.877Z,16.67
2018-06-12T13:15:10.840Z,22.02
2018-06-12T13:21:05.822Z,19.19
2018-06-12T13:27:00.844Z,20.7
2018-06-12T13:32:55.818Z,17.32
2018-06-12T13:38:50.865Z,6.07
2018-06-12T13:44:45.890Z,10.6
2018-06-12T13:50:41.166Z,10.7
2018-06-12T13:56:36.304Z,5.71
2018-06-12T14:02:30.926Z,8.88
2018-06-12T14:08:30.876Z,6.55
2018-06-12T14:14:44.945Z,7.57
2018-06-12T14:26:11.859Z,6.45
2018-06-12T14:32:05.875Z,5.46
2018-06-12T14:38:00.882Z,5.29
2018-06-12T14:44:04.954Z,5.24
2018-06-12T14:49:54.936Z,3.53
2018-06-12T14:55:50.954Z,4.04
2018-06-12T15:01:45.894Z,3.93
2018-06-12T15:07:42.990Z,3.78
2018-06-12T15:13:32.015Z,3.44
2018-06-12T15:19:25.910Z,2.28
2018-06-12T15:25:23.978Z,3.89
2018-06-12T15:31:39.099Z,3.67
2018-06-12T15:37:46.954Z,2.73
2018-06-12T15:43:10.011Z,3.98
2018-06-12T15:49:00.919Z,2.89
2018-06-12T15:55:00.995Z,2.27
2018-06-12T16:00:55.930Z,2.6
2018-06-12T16:06:54.068Z,3.23
2018-06-12T16:12:41.918Z,2.46
2018-06-12T16:19:39.020Z,2.81
2018-06-12T16:24:31.923Z,2.91
2018-06-12T16:30:29.976Z,3.09
2018-06-12T16:36:25.972Z,3.36
2018-06-12T16:42:15.947Z,2.31
2018-06-12T16:48:11.957Z,3.03
2018-06-12T16:54:06.959Z,2.74
2018-06-12T17:00:08.027Z,3.05
2018-06-12T17:05:58.986Z,2.93
2018-06-12T17:11:56.009Z,3.1
2018-06-12T17:17:45.987Z,8.83
2018-06-12T17:23:40.958Z,11.65
2018-06-12T17:29:35.979Z,18.72
2018-06-12T17:35:30.967Z,21.66
2018-06-12T17:41:25.968Z,16.39
2018-06-12T17:47:20.982Z,12.77
2018-06-12T17:53:16.000Z,13.24
2018-06-12T17:59:11.021Z,10.35
2018-06-12T18:05:06.053Z,10.54
2018-06-12T18:11:01.035Z,6.74
2018-06-12T18:16:56.063Z,5.19
2018-06-12T18:22:50.984Z,5.3
2018-06-12T18:28:45.992Z,5.14
2018-06-12T18:34:41.005Z,6.83
2018-06-12T18:40:35.996Z,6.52
2018-06-12T18:46:31.031Z,5.85
2018-06-12T18:52:26.021Z,5.5
2018-06-12T18:58:20.998Z,5.6
2018-06-12T19:04:16.023Z,5.35
2018-06-12T19:10:11.005Z,5.22
2018-06-12T19:16:06.042Z,4.9
2018-06-12T19:22:01.060Z,4.99
2018-06-12T19:27:56.055Z,4.78
2018-06-12T19:33:51.054Z,4.72
2018-06-12T19:39:46.081Z,4.65
2018-06-12T19:45:41.039Z,3.99
2018-06-12T19:51:36.057Z,3.07
2018-06-12T19:57:31.044Z,2.77
2018-06-12T20:03:26.064Z,2.95
2018-06-12T20:09:21.071Z,2.83
2018-06-12T20:15:16.080Z,2.12
2018-06-12T20:21:11.074Z,1.6
2018-06-12T20:27:06.084Z,2.41
2018-06-12T20:33:01.086Z,2.2
2018-06-12T20:38:56.157Z,2.14
2018-06-12T20:44:51.110Z,1.83
2018-06-12T20:50:46.092Z,1.99
2018-06-12T20:56:41.099Z,3.15
2018-06-12T21:02:36.098Z,3.01
2018-06-12T21:08:31.122Z,1.67
2018-06-12T21:14:26.123Z,2.34
2018-06-12T21:20:21.157Z,1.89
2018-06-12T21:26:16.115Z,2.67
2018-06-12T21:32:11.112Z,2.34
2018-06-12T21:38:06.096Z,2.2
2018-06-12T21:44:01.142Z,1.94
2018-06-12T21:49:56.178Z,2
2018-06-12T21:55:51.181Z,2.2
2018-06-12T22:01:46.132Z,2.2
2018-06-12T22:07:41.247Z,1.95
2018-06-12T22:13:36.115Z,1.83
2018-06-12T22:19:31.137Z,2.19
2018-06-12T22:25:26.156Z,2.4
2018-06-12T22:31:21.240Z,2.18
2018-06-12T22:37:16.171Z,2.05
2018-06-12T22:43:11.194Z,2.03
2018-06-12T22:49:06.172Z,2.46
2018-06-12T22:55:01.183Z,2.19
2018-06-12T23:00:56.148Z,2.07
2018-06-12T23:06:51.160Z,2.18
2018-06-12T23:12:46.170Z,1.98
2018-06-12T23:18:41.172Z,2.06
2018-06-12T23:24:36.194Z,2.07
2018-06-12T23:30:31.188Z,1.77
2018-06-12T23:36:26.177Z,1.85
2018-06-12T23:42:21.173Z,1.7
2018-06-12T23:48:16.174Z,1.79
2018-06-12T23:54:11.203Z,1.96
